Latest Weather Observations for North Head

IDN60801

Issued at 10:03 pm EST Tuesday 4 August 2020 (issued every 10 minutes, with the page automatically refreshed every 10 minutes)

About weather observations | Map of weather stations | Latest weather observations for NSW | Other Formats
Station Details ID: 066197 Name: NORTH HEAD Lat: -33.82 Lon: 151.30 Height: 90.0 m
Data from the previous 72 hours. | See also: Recent months at North Head
Date/Time
EST
Temp
°C
App
Temp
°C
Dew
Point
°C
Rel
Hum
%
Delta-T
°C
Wind Press
QNH
hPa
Press
MSL
hPa
Rain since
9am
mm
Dir  Spd
km/h
Gust
km/h
Spd
kts
Gust
kts
04/10:00pm - - - - - WSW 20 33 11 18 - - -
04/09:30pm - - - - - WSW 20 33 11 18 - - -
04/09:00pm - - - - - WSW 19 28 10 15 - - -
04/08:30pm - - - - - WSW 22 39 12 21 - - -
04/08:00pm - - - - - W 15 20 8 11 - - -
04/07:30pm - - - - - W 20 32 11 17 - - -
04/07:00pm - - - - - WNW 22 35 12 19 - - -
04/06:30pm - - - - - W 24 35 13 19 - - -
04/06:00pm - - - - - WNW 26 41 14 22 - - -
04/05:30pm - - - - - WNW 28 43 15 23 - - -
04/05:00pm - - - - - WNW 22 37 12 20 - - -
04/04:30pm - - - - - WNW 17 32 9 17 - - -
04/04:00pm - - - - - WNW 20 39 11 21 - - -
04/03:30pm - - - - - NNW 9 19 5 10 - - -
04/03:00pm - - - - - NW 19 28 10 15 - - -
04/02:30pm - - - - - NW 15 28 8 15 - - -
04/02:00pm - - - - - NW 20 30 11 16 - - -
04/01:30pm - - - - - NW 13 20 7 11 - - -
04/01:00pm - - - - - WNW 13 28 7 15 - - -
04/12:30pm - - - - - WNW 13 20 7 11 - - -
04/12:00pm - - - - - NNE 13 22 7 12 - - -
04/11:30am - - - - - NNW 11 17 6 9 - - -
04/11:00am - - - - - N 9 15 5 8 - - -
04/10:30am - - - - - NW 11 17 6 9 - - -
04/10:00am - - - - - NNW 11 19 6 10 - - -
04/09:30am - - - - - NNW 13 17 7 9 - - -
04/09:00am - - - - - NNW 11 17 6 9 - - -
04/08:30am - - - - - NW 11 15 6 8 - - -
04/08:00am - - - - - NW 9 15 5 8 - - -
04/07:30am - - - - - NW 11 17 6 9 - - -
04/07:00am - - - - - NW 11 15 6 8 - - -
04/06:30am - - - - - NW 11 15 6 8 - - -
04/06:00am - - - - - NW 11 15 6 8 - - -
04/05:30am - - - - - NW 11 15 6 8 - - -
04/05:00am - - - - - NNW 13 19 7 10 - - -
04/04:30am - - - - - NW 15 24 8 13 - - -
04/04:00am - - - - - NW 15 24 8 13 - - -
04/03:30am - - - - - NW 17 24 9 13 - - -
04/03:00am - - - - - NW 17 24 9 13 - - -
04/02:30am - - - - - NW 17 28 9 15 - - -
04/02:00am - - - - - NW 15 24 8 13 - - -
04/01:30am - - - - - NW 15 24 8 13 - - -
04/01:00am - - - - - NW 15 22 8 12 - - -
04/12:30am - - - - - NW 15 20 8 11 - - -
04/12:00am - - - - - NW 15 22 8 12 - - -
 
Date/Time
EST
Temp
°C
App
Temp
°C
Dew
Point
°C
Rel
Hum
%
Delta-T
°C
Wind Press
QNH
hPa
Press
MSL
hPa
Rain since
9am
mm
Dir  Spd
km/h
Gust
km/h
Spd
kts
Gust
kts
03/11:30pm - - - - - NW 15 20 8 11 - - -
03/11:00pm - - - - - NW 11 17 6 9 - - -
03/10:30pm - - - - - NW 9 13 5 7 - - -
03/10:00pm - - - - - NW 9 13 5 7 - - -
03/09:30pm - - - - - NW 11 15 6 8 - - -
03/09:00pm - - - - - WNW 11 15 6 8 - - -
03/08:30pm - - - - - WNW 9 15 5 8 - - -
03/08:00pm - - - - - WNW 11 17 6 9 - - -
03/07:30pm - - - - - NW 11 15 6 8 - - -
03/07:00pm - - - - - NNW 11 13 6 7 - - -
03/06:30pm - - - - - NNW 9 13 5 7 - - -
03/06:00pm - - - - - N 7 11 4 6 - - -
03/05:30pm - - - - - N 11 13 6 7 - - -
03/05:00pm - - - - - N 11 15 6 8 - - -
03/04:30pm - - - - - N 11 13 6 7 - - -
03/04:00pm - - - - - N 11 13 6 7 - - -
03/03:30pm - - - - - N 9 13 5 7 - - -
03/03:00pm - - - - - N 7 11 4 6 - - -
03/02:30pm - - - - - NNE 9 15 5 8 - - -
03/02:00pm - - - - - NNE 9 15 5 8 - - -
03/01:30pm - - - - - ENE 6 9 3 5 - - -
03/01:00pm - - - - - E 7 11 4 6 - - -
03/12:30pm - - - - - NW 4 7 2 4 - - -
03/12:00pm - - - - - ENE 4 6 2 3 - - -
03/11:30am - - - - - NW 2 7 1 4 - - -
03/11:00am - - - - - NW 6 9 3 5 - - -
03/10:30am - - - - - NW 7 11 4 6 - - -
03/10:00am - - - - - NW 7 13 4 7 - - -
03/09:30am - - - - - WNW 11 17 6 9 - - -
03/09:00am - - - - - WNW 11 15 6 8 - - -
03/08:30am - - - - - WNW 11 15 6 8 - - -
03/08:00am - - - - - WNW 13 17 7 9 - - -
03/07:30am - - - - - WNW 15 19 8 10 - - -
03/07:00am - - - - - WNW 15 17 8 9 - - -
03/06:30am - - - - - W 17 19 9 10 - - -
03/06:00am - - - - - WNW 11 15 6 8 - - -
03/05:30am - - - - - NW 11 15 6 8 - - -
03/05:00am - - - - - NW 11 13 6 7 - - -
03/04:30am - - - - - WNW 11 13 6 7 - - -
03/04:00am - - - - - WNW 9 11 5 6 - - -
03/03:30am - - - - - WNW 9 11 5 6 - - -
03/03:00am - - - - - NW 9 9 5 5 - - -
03/02:30am - - - - - NW 7 7 4 4 - - -
03/02:00am - - - - - NW 7 9 4 5 - - -
03/01:30am - - - - - W 6 6 3 3 - - -
03/01:00am - - - - - WNW 7 7 4 4 - - -
03/12:30am - - - - - WNW 6 6 3 3 - - -
03/12:00am - - - - - N 7 9 4 5 - - -
 
Date/Time
EST
Temp
°C
App
Temp
°C
Dew
Point
°C
Rel
Hum
%
Delta-T
°C
Wind Press
QNH
hPa
Press
MSL
hPa
Rain since
9am
mm
Dir  Spd
km/h
Gust
km/h
Spd
kts
Gust
kts
02/11:30pm - - - - - N 9 11 5 6 - - -
02/11:00pm - - - - - N 9 11 5 6 - - -
02/10:30pm - - - - - N 9 9 5 5 - - -
02/10:00pm - - - - - NNE 9 11 5 6 - - -
02/09:30pm - - - - - NNE 7 11 4 6 - - -
02/09:00pm - - - - - NE 7 7 4 4 - - -
02/08:30pm - - - - - NNE 6 7 3 4 - - -
02/08:00pm - - - - - NE 7 9 4 5 - - -
02/07:30pm - - - - - NE 9 13 5 7 - - -
02/07:00pm - - - - - ENE 9 11 5 6 - - -
02/06:30pm - - - - - ENE 6 9 3 5 - - -
02/06:00pm - - - - - ENE 7 11 4 6 - - -
02/05:30pm - - - - - ENE 6 9 3 5 - - -
02/05:00pm - - - - - ENE 6 7 3 4 - - -
02/04:30pm - - - - - E 7 11 4 6 - - -
02/04:00pm - - - - - ESE 9 13 5 7 - - -
02/03:30pm - - - - - ESE 9 11 5 6 - - -
02/03:00pm - - - - - SE 9 13 5 7 - - -
02/02:30pm - - - - - SE 9 13 5 7 - - -
02/02:00pm - - - - - WSW 6 7 3 4 - - -
02/01:30pm - - - - - SW 7 11 4 6 - - -
02/01:00pm - - - - - SW 6 11 3 6 - - -
02/12:30pm - - - - - W 13 19 7 10 - - -
02/12:00pm - - - - - W 15 22 8 12 - - -
02/11:30am - - - - - W 13 19 7 10 - - -
02/11:00am - - - - - WNW 15 20 8 11 - - -
02/10:30am - - - - - WNW 20 28 11 15 - - -
02/10:00am - - - - - WNW 17 20 9 11 - - -
02/09:30am - - - - - WNW 17 22 9 12 - - -
02/09:00am - - - - - WNW 13 19 7 10 - - -
02/08:30am - - - - - W 13 19 7 10 - - -
02/08:00am - - - - - W 17 20 9 11 - - -
02/07:30am - - - - - W 17 20 9 11 - - -
02/07:00am - - - - - WNW 15 19 8 10 - - -
02/06:30am - - - - - WNW 17 19 9 10 - - -
02/06:00am - - - - - W 19 20 10 11 - - -
02/05:30am - - - - - WNW 13 17 7 9 - - -
02/05:00am - - - - - W 13 17 7 9 - - -
02/04:30am - - - - - WNW 13 17 7 9 - - -
02/04:00am - - - - - W 13 15 7 8 - - -
02/03:30am - - - - - W 13 17 7 9 - - -
02/03:00am - - - - - W 13 17 7 9 - - -
02/02:30am - - - - - WNW 11 11 6 6 - - -
02/02:00am - - - - - W 9 11 5 6 - - -
02/01:30am - - - - - NW 11 13 6 7 - - -
02/01:00am - - - - - WNW 9 9 5 5 - - -
02/12:30am - - - - - NW 9 11 5 6 - - -
02/12:00am - - - - - NW 9 9 5 5 - - -
 
Date/Time
EST
Temp
°C
App
Temp
°C
Dew
Point
°C
Rel
Hum
%
Delta-T
°C
Wind Press
QNH
hPa
Press
MSL
hPa
Rain since
9am
mm
Dir  Spd
km/h
Gust
km/h
Spd
kts
Gust
kts
01/11:30pm - - - - - WNW 4 6 2 3 - - -
01/11:00pm - - - - - NNW 6 6 3 3 - - -
01/10:30pm - - - - - NNW 9 11 5 6 - - -

Other formats

Comma delimited format used in spreadsheet applications
http://www.bom.gov.au/fwo/IDN60801/IDN60801.95768.axf

JavaScript Object Notation format (JSON) in row-major order
http://www.bom.gov.au/fwo/IDN60801/IDN60801.95768.json

Data quality

Most of these data are generated automatically and are frequently updated. Quality checks on data are not normally performed. It is possible for incorrect values to appear. Refer to information at About Latest Weather Observations and please check the disclaimer before using these data.